Time;durP1;ratioP1;P1;durP2;ratioP2;P2;SDS_P1;SDS_P2;PMS_P1;PMS_P2;Temp;Humidity;BMP_temperature;BMP_pressure;BME280_temperature;BME280_humidity;BME280_pressure;Samples;Min_cycle;Max_cycle;Signal;HPM_P1;HPM_P2
2022/11/03 00:02:15;;;;;;;14.65;2.38;;;;;;;11.90;87.09;101105.44;5028162;28;20103;-45
2022/11/03 00:04:40;;;;;;;13.45;2.50;;;;;;;11.92;87.12;101098.81;5008367;28;20057;-44
2022/11/03 00:07:06;;;;;;;24.70;3.90;;;;;;;11.92;87.20;101092.59;5027279;28;20125;-45
2022/11/03 00:09:31;;;;;;;20.38;2.80;;;;;;;11.90;87.29;101089.25;5029293;28;20021;-45
2022/11/03 00:11:57;;;;;;;20.48;2.70;;;;;;;11.86;87.61;101089.63;5027696;28;20471;-45
2022/11/03 00:14:22;;;;;;;25.67;4.05;;;;;;;11.86;87.73;101094.19;5028745;28;20561;-45
2022/11/03 00:16:47;;;;;;;20.83;2.30;;;;;;;11.82;88.07;101103.63;5028442;28;20479;-44
2022/11/03 00:19:15;;;;;;;24.20;3.45;;;;;;;11.83;88.29;101102.63;5030254;28;20164;-45
2022/11/03 00:21:40;;;;;;;23.20;3.05;;;;;;;11.93;87.90;101107.75;5031174;28;20841;-45
2022/11/03 00:24:06;;;;;;;20.15;2.60;;;;;;;11.96;87.67;101112.81;5031385;28;20033;-44
2022/11/03 00:26:33;;;;;;;13.63;2.13;;;;;;;11.97;87.96;101100.97;5033034;28;20044;-44
2022/11/03 00:29:01;;;;;;;17.67;2.70;;;;;;;11.93;88.26;101088.88;5032868;28;20025;-44
2022/11/03 00:31:30;;;;;;;13.60;2.83;;;;;;;11.89;88.49;101082.19;5031408;28;20036;-45
2022/11/03 00:33:57;;;;;;;20.05;2.92;;;;;;;11.89;88.69;101088.41;5032972;28;20044;-44
2022/11/03 00:36:24;;;;;;;20.65;3.08;;;;;;;11.86;89.05;101078.84;5032440;28;20051;-44
2022/11/03 00:38:49;;;;;;;23.25;2.60;;;;;;;11.86;89.32;101083.41;5031483;28;20113;-43
2022/11/03 00:41:16;;;;;;;15.43;3.47;;;;;;;11.84;89.47;101080.84;5032449;28;20109;-43
2022/11/03 00:43:42;;;;;;;14.23;2.30;;;;;;;11.88;89.44;101081.34;5030584;28;20029;-44
2022/11/03 00:46:08;;;;;;;17.33;3.03;;;;;;;11.89;89.85;101077.63;5027793;28;20096;-44
2022/11/03 00:48:35;;;;;;;17.35;2.05;;;;;;;11.90;89.96;101073.06;5032606;28;20022;-44
2022/11/03 00:51:01;;;;;;;14.52;2.35;;;;;;;11.92;90.06;101092.59;5031396;28;20091;-43
2022/11/03 00:53:27;;;;;;;14.27;2.80;;;;;;;11.96;90.01;101077.75;5032737;28;20033;-43
2022/11/03 00:55:53;;;;;;;17.05;2.47;;;;;;;11.96;90.27;101078.56;5031934;28;20039;-43
2022/11/03 00:58:18;;;;;;;14.52;2.85;;;;;;;11.96;90.31;101088.53;5010710;28;20037;-43
2022/11/03 01:00:43;;;;;;;17.42;2.78;;;;;;;11.96;90.60;101075.88;5027982;28;20075;-43
2022/11/03 01:03:09;;;;;;;23.08;2.92;;;;;;;11.96;90.80;101070.47;5032207;28;20037;-44
2022/11/03 01:08:18;;;;;;;17.30;3.33;;;;;;;11.95;91.27;101052.59;5030794;28;20040;-43
2022/11/03 01:11:42;;;;;;;24.75;3.35;;;;;;;11.93;91.73;101046.56;5032204;28;20128;-44
2022/11/03 01:13:30;;;;;;;17.02;2.33;;;;;;;11.91;92.10;101051.31;5030445;28;20050;-43
2022/11/03 01:15:57;;;;;;;16.80;3.22;;;;;;;11.90;92.34;101046.94;5031424;28;20033;-44
2022/11/03 01:18:23;;;;;;;15.10;2.83;;;;;;;11.90;92.35;101046.94;5028966;28;20037;-44
2022/11/03 01:20:54;;;;;;;17.23;3.35;;;;;;;11.91;92.66;101037.81;5030926;28;20106;-43
2022/11/03 01:23:19;;;;;;;15.80;2.90;;;;;;;11.90;92.94;101025.38;5029728;28;20021;-44
2022/11/03 01:25:45;;;;;;;20.52;3.00;;;;;;;11.88;93.32;101038.19;5031839;28;20037;-43
2022/11/03 01:28:10;;;;;;;19.00;2.75;;;;;;;11.89;93.45;101030.94;5031834;28;20022;-44
2022/11/03 01:30:35;;;;;;;18.20;2.70;;;;;;;11.88;93.65;101022.03;5031995;28;20071;-44
2022/11/03 01:33:00;;;;;;;22.75;2.97;;;;;;;11.88;93.94;101027.41;5014140;28;20029;-43
2022/11/03 01:35:26;;;;;;;23.10;2.90;;;;;;;11.86;93.90;101024.06;5031150;28;20080;-42
2022/11/03 01:37:53;;;;;;;19.83;2.58;;;;;;;11.86;94.17;101029.47;5030513;28;20060;-43
2022/11/03 01:40:18;;;;;;;28.10;3.10;;;;;;;11.85;94.32;101031.28;5029872;28;20041;-44
2022/11/03 01:42:43;;;;;;;13.05;3.03;;;;;;;11.87;94.34;101020.31;5030125;28;20120;-43
2022/11/03 01:45:09;;;;;;;19.30;3.00;;;;;;;11.86;94.42;101007.88;5031451;28;20117;-44
2022/11/03 01:47:35;;;;;;;15.15;2.70;;;;;;;11.83;94.75;101013.63;5031014;28;20033;-43
2022/11/03 01:50:05;;;;;;;22.98;3.13;;;;;;;11.83;94.73;101000.13;5029513;28;20076;-43
2022/11/03 01:52:37;;;;;;;19.10;3.08;;;;;;;11.82;95.09;101003.84;5029524;28;20403;-43
2022/11/03 01:55:06;;;;;;;21.08;3.20;;;;;;;11.79;95.26;101006.91;5029368;28;20747;-43
2022/11/03 01:58:19;;;;;;;23.85;3.13;;;;;;;11.79;95.50;100996.13;5030895;28;20029;-44
2022/11/03 02:00:47;;;;;;;13.80;2.47;;;;;;;11.77;95.54;100996.31;5022278;28;20508;-44
2022/11/03 02:03:12;;;;;;;;;;;;;;;11.75;95.86;100995.66;5031376;28;20502;-43
2022/11/03 02:05:38;;;;;;;16.90;3.00;;;;;;;11.77;95.72;100984.69;5031074;28;19920;-44
2022/11/03 02:08:13;;;;;;;27.08;3.65;;;;;;;11.74;95.90;100972.44;5029263;28;20048;-44
2022/11/03 02:10:38;;;;;;;22.50;2.50;;;;;;;11.76;95.89;100975.75;4999072;28;20030;-44
2022/11/03 02:13:12;;;;;;;13.75;2.85;;;;;;;11.73;96.16;100970.75;5030364;28;20069;-44
2022/11/03 02:15:37;;;;;;;21.27;3.33;;;;;;;11.73;96.22;100973.44;5014001;28;20120;-43
2022/11/03 02:18:05;;;;;;;25.85;3.22;;;;;;;11.77;96.07;100968.50;5031131;28;20116;-43
2022/11/03 02:20:31;;;;;;;19.37;2.93;;;;;;;11.78;96.19;100972.88;5028744;28;20025;-43
2022/11/03 02:23:06;;;;;;;23.48;3.15;;;;;;;11.79;96.18;100958.38;5029233;28;20395;-43
2022/11/03 02:25:46;;;;;;;23.95;3.22;;;;;;;11.83;95.93;100941.63;5031023;28;20100;-44
2022/11/03 02:28:17;;;;;;;17.95;2.63;;;;;;;11.82;95.52;100942.69;5030636;28;20030;-43
2022/11/03 02:30:48;;;;;;;14.73;2.33;;;;;;;11.86;95.71;100944.00;5029342;28;20025;-44
2022/11/03 02:33:30;;;;;;;20.15;2.92;;;;;;;11.88;95.92;100949.19;5028661;28;20026;-43
2022/11/03 02:36:43;;;;;;;19.02;2.78;;;;;;;11.90;95.87;100939.06;5024181;28;20036;-44
2022/11/03 02:39:16;;;;;;;28.65;3.35;;;;;;;11.90;95.92;100928.28;5025419;28;20041;-44
2022/11/03 02:41:42;;;;;;;21.58;2.70;;;;;;;11.92;95.70;100925.38;5019264;28;20030;-43
2022/11/03 02:44:13;;;;;;;20.20;2.72;;;;;;;11.90;95.89;100922.03;5013186;28;20474;-44
2022/11/03 02:46:41;;;;;;;13.60;2.42;;;;;;;11.83;96.25;100911.97;5028814;28;20034;-44
2022/11/03 02:49:06;;;;;;;20.15;2.90;;;;;;;11.79;96.59;100909.84;5015651;28;20032;-44
2022/11/03 02:51:33;;;;;;;19.48;2.22;;;;;;;11.77;97.06;100901.09;5030053;28;20025;-44
2022/11/03 02:54:14;;;;;;;24.42;2.67;;;;;;;11.74;97.15;100885.28;5030308;28;20424;-44
2022/11/03 02:57:13;;;;;;;15.25;2.50;;;;;;;11.72;97.52;100887.38;5029544;28;20033;-44
2022/11/03 03:00:05;;;;;;;16.90;2.65;;;;;;;11.73;97.62;100894.41;5030237;28;20029;-44
2022/11/03 03:02:46;;;;;;;18.30;2.55;;;;;;;11.73;97.69;100892.56;5027071;28;20060;-44
2022/11/03 03:05:13;;;;;;;15.35;2.22;;;;;;;11.75;97.67;100897.78;5030239;28;20447;-44
2022/11/03 03:07:43;;;;;;;16.45;2.65;;;;;;;11.76;97.58;100897.56;5020631;28;20448;-43
2022/11/03 03:10:16;;;;;;;15.10;2.60;;;;;;;11.77;97.49;100885.78;5023200;28;20098;-43
2022/11/03 03:12:52;;;;;;;19.15;3.40;;;;;;;11.73;97.80;100872.84;5028011;28;20112;-44
2022/11/03 03:15:19;;;;;;;25.10;3.78;;;;;;;11.72;97.93;100873.88;5027739;28;20030;-44
2022/11/03 03:18:19;;;;;;;19.88;2.70;;;;;;;11.68;98.35;100872.59;5030258;28;20029;-44
2022/11/03 03:20:55;;;;;;;16.02;2.65;;;;;;;11.64;98.47;100886.44;5028163;28;20052;-43
2022/11/03 03:23:23;;;;;;;20.98;2.63;;;;;;;11.70;98.32;100871.38;5028669;28;20065;-44
2022/11/03 03:26:02;;;;;;;19.20;3.30;;;;;;;11.71;98.50;100877.59;5009140;28;20049;-43
2022/11/03 03:28:48;;;;;;;21.92;2.88;;;;;;;11.72;98.53;100872.03;5010109;28;20033;-43
2022/11/03 03:31:15;;;;;;;18.95;2.80;;;;;;;11.76;98.52;100856.28;5028673;28;20037;-44
2022/11/03 03:33:41;;;;;;;23.10;3.77;;;;;;;11.79;98.37;100855.91;5030846;28;20028;-43
2022/11/03 03:36:11;;;;;;;15.95;2.05;;;;;;;11.82;98.32;100852.81;5029570;28;20100;-44
2022/11/03 03:38:49;;;;;;;17.25;2.40;;;;;;;11.84;98.10;100854.31;5011686;28;20041;-44
2022/11/03 03:41:24;;;;;;;14.23;2.35;;;;;;;11.91;97.61;100859.81;5029474;28;20026;-44
2022/11/03 03:43:53;;;;;;;17.60;2.83;;;;;;;11.91;97.71;100851.72;5010151;28;20030;-44
2022/11/03 03:46:20;;;;;;;22.25;2.65;;;;;;;11.96;97.86;100845.78;5024154;28;20029;-44
2022/11/03 03:48:45;;;;;;;13.93;2.90;;;;;;;11.96;97.79;100852.00;5028268;28;20400;-44
2022/11/03 03:51:12;;;;;;;13.13;2.50;;;;;;;11.96;97.68;100838.50;5029488;28;20311;-44
2022/11/03 03:53:37;;;;;;;17.40;2.75;;;;;;;11.95;97.95;100834.13;5031143;28;20491;-43
2022/11/03 03:56:04;;;;;;;21.58;2.50;;;;;;;11.96;97.81;100840.38;5033505;28;20089;-44
2022/11/03 03:58:30;;;;;;;13.63;3.13;;;;;;;11.96;97.79;100835.81;5015085;28;20113;-43
2022/11/03 04:00:55;;;;;;;14.40;2.45;;;;;;;11.95;97.89;100828.72;5033349;28;20124;-43
2022/11/03 04:03:22;;;;;;;19.60;3.65;;;;;;;11.95;98.18;100827.91;5033072;28;20471;-44
2022/11/03 04:05:48;;;;;;;17.33;3.00;;;;;;;11.94;98.46;100824.38;5032469;28;20022;-44
2022/11/03 04:08:14;;;;;;;13.85;2.63;;;;;;;11.96;98.03;100835.81;5033422;28;20475;-43
2022/11/03 04:10:39;;;;;;;13.43;2.15;;;;;;;11.94;98.07;100821.69;5033447;28;20021;-44
2022/11/03 04:23:47;;;;;;;22.30;3.13;;;;;;;11.93;98.58;100809.22;5033574;28;20043;-44
2022/11/03 04:26:15;;;;;;;17.25;2.20;;;;;;;11.90;98.78;100808.75;5032947;28;20029;-44
2022/11/03 04:28:41;;;;;;;10.30;2.20;;;;;;;11.86;99.12;100816.41;5012031;28;20114;-43
2022/11/03 04:31:15;;;;;;;9.45;1.85;;;;;;;11.91;99.06;100807.75;5031898;28;20033;-44
2022/11/03 04:33:40;;;;;;;20.25;3.03;;;;;;;11.86;99.48;100816.41;5020401;28;20067;-44
2022/11/03 04:36:10;;;;;;;15.32;2.90;;;;;;;11.85;99.91;100806.63;5033074;28;20083;-44
2022/11/03 04:38:36;;;;;;;13.75;2.67;;;;;;;11.84;100.00;100794.16;5031417;28;20100;-44
2022/11/03 04:41:05;;;;;;;16.85;2.75;;;;;;;11.82;100.00;100793.50;5032506;28;20055;-43
2022/11/03 04:43:33;;;;;;;13.80;2.58;;;;;;;11.83;100.00;100793.31;5014737;28;20041;-44
2022/11/03 04:45:58;;;;;;;18.10;2.90;;;;;;;11.83;100.00;100792.50;5032731;28;20064;-43
2022/11/03 04:48:26;;;;;;;16.35;2.28;;;;;;;11.80;100.00;100800.97;5032288;28;20116;-44
2022/11/03 04:50:52;;;;;;;;;;;;;;;11.79;100.00;100778.53;5033247;28;20087;-44
2022/11/03 04:53:19;;;;;;;17.40;2.72;;;;;;;11.80;100.00;100772.13;5011439;28;20348;-43
2022/11/03 04:55:46;;;;;;;13.07;2.35;;;;;;;11.79;100.00;100772.31;5032223;28;20029;-44
2022/11/03 04:58:26;;;;;;;16.80;2.35;;;;;;;11.77;100.00;100774.38;5030979;28;20376;-44
2022/11/03 05:00:53;;;;;;;19.70;2.80;;;;;;;11.85;100.00;100761.63;5030123;28;20029;-44
2022/11/03 05:03:28;;;;;;;16.88;2.63;;;;;;;11.85;100.00;100761.63;5014559;28;20447;-43
2022/11/03 05:05:53;;;;;;;14.80;3.20;;;;;;;11.87;100.00;100761.44;5015747;28;20068;-44
2022/11/03 05:08:20;;;;;;;15.05;2.72;;;;;;;11.90;100.00;100758.38;5032384;28;20033;-43
2022/11/03 05:10:46;;;;;;;14.23;2.60;;;;;;;11.91;100.00;100732.25;5030594;28;20451;-43
2022/11/03 05:13:23;;;;;;;15.50;2.65;;;;;;;11.91;100.00;100746.56;5031569;28;20099;-44
2022/11/03 05:15:50;;;;;;;20.05;2.30;;;;;;;11.90;100.00;100739.50;5011166;28;20034;-44
2022/11/03 05:18:29;;;;;;;15.75;2.83;;;;;;;11.92;100.00;100729.34;5004243;28;20060;-44
2022/11/03 05:21:17;;;;;;;17.33;3.58;;;;;;;11.90;100.00;100725.16;5018030;28;20423;-43
2022/11/03 05:23:46;;;;;;;21.70;2.83;;;;;;;11.89;100.00;100715.41;5031788;28;20414;-44
2022/11/03 05:26:19;;;;;;;15.80;2.60;;;;;;;11.92;100.00;100721.25;5031834;28;20487;-43
2022/11/03 05:28:51;;;;;;;12.20;2.35;;;;;;;11.89;100.00;100708.16;5030798;28;20028;-44
2022/11/03 05:31:21;;;;;;;12.20;2.35;;;;;;;11.89;100.00;100720.81;5032443;28;20436;-44
2022/11/03 05:33:48;;;;;;;8.73;2.33;;;;;;;11.93;100.00;100714.84;5030552;28;20606;-43
2022/11/03 05:36:20;;;;;;;16.38;2.58;;;;;;;11.92;100.00;100705.06;5032104;28;20049;-44
2022/11/03 05:38:50;;;;;;;11.40;2.30;;;;;;;11.96;100.00;100711.75;5030943;28;20044;-43
2022/11/03 05:41:24;;;;;;;18.87;2.90;;;;;;;11.98;100.00;100708.84;5029886;28;20032;-44
2022/11/03 05:43:58;;;;;;;13.00;2.60;;;;;;;12.01;100.00;100700.38;5024391;28;20596;-44
2022/11/03 05:46:32;;;;;;;11.98;2.22;;;;;;;12.01;100.00;100703.09;5012373;28;20037;-44
2022/11/03 05:49:00;;;;;;;10.27;2.55;;;;;;;12.01;100.00;100706.59;5029323;28;20483;-42
2022/11/03 05:51:29;;;;;;;15.10;2.22;;;;;;;11.96;100.00;100690.16;5012907;28;20598;-44
2022/11/03 05:53:57;;;;;;;14.10;2.78;;;;;;;11.95;100.00;100699.28;5030460;28;20029;-43
2022/11/03 05:56:23;;;;;;;18.30;2.15;;;;;;;11.97;100.00;100694.53;5029613;28;20060;-44
2022/11/03 05:58:51;;;;;;;10.15;2.20;;;;;;;12.04;100.00;100703.50;5030760;28;20041;-44
2022/11/03 06:01:24;;;;;;;16.83;3.03;;;;;;;12.02;100.00;100713.66;5013365;28;20095;-44
2022/11/03 06:03:50;;;;;;;17.80;2.75;;;;;;;12.04;100.00;100697.28;5030677;28;20033;-44
2022/11/03 06:06:29;;;;;;;17.35;2.88;;;;;;;12.03;100.00;100693.75;5012463;28;20026;-43
2022/11/03 06:08:56;;;;;;;21.77;2.80;;;;;;;12.04;100.00;100692.72;5030114;28;20037;-43
2022/11/03 06:11:26;;;;;;;18.98;2.72;;;;;;;12.04;100.00;100686.50;5029883;28;20479;-43
2022/11/03 06:13:55;;;;;;;22.50;2.65;;;;;;;12.06;100.00;100685.28;5030846;28;20049;-44
2022/11/03 06:16:43;;;;;;;22.63;2.88;;;;;;;12.08;100.00;100683.22;5028720;28;20494;-42
2022/11/03 06:19:36;;;;;;;18.92;2.90;;;;;;;12.08;100.00;100683.22;5029581;28;20333;-43
2022/11/03 06:22:10;;;;;;;13.15;2.40;;;;;;;12.11;100.00;100671.19;5030978;28;20025;-43
2022/11/03 06:24:35;;;;;;;21.27;3.03;;;;;;;12.10;100.00;100669.53;5030018;28;20030;-43
2022/11/03 06:27:00;;;;;;;18.02;2.67;;;;;;;12.12;100.00;100678.25;5030146;28;20030;-43
2022/11/03 06:29:29;;;;;;;14.82;2.53;;;;;;;12.13;100.00;100673.69;5011074;28;20048;-44
2022/11/03 06:31:56;;;;;;;15.98;2.40;;;;;;;12.13;100.00;100658.34;5027257;28;20025;-44
2022/11/03 06:34:30;;;;;;;14.13;2.65;;;;;;;12.14;100.00;100648.38;5027308;28;20025;-45
2022/11/03 06:36:57;;;;;;;16.50;2.45;;;;;;;12.15;100.00;100658.16;5031140;28;20027;-43
2022/11/03 06:39:23;;;;;;;13.70;2.75;;;;;;;12.19;100.00;100652.19;5028703;28;20041;-43
2022/11/03 06:41:48;;;;;;;11.55;2.15;;;;;;;12.19;100.00;100662.09;5029384;28;20040;-43
2022/11/03 06:44:25;;;;;;;22.52;2.30;;;;;;;12.21;100.00;100651.97;5030213;28;20025;-43
2022/11/03 06:46:55;;;;;;;23.30;2.70;;;;;;;12.22;100.00;100646.38;5022990;28;20022;-43
2022/11/03 06:49:27;;;;;;;17.45;2.58;;;;;;;12.22;100.00;100648.25;5009628;28;20109;-43
2022/11/03 06:51:52;;;;;;;15.13;2.97;;;;;;;12.23;100.00;100648.03;5009459;28;20033;-44
2022/11/03 06:54:17;;;;;;;13.13;1.85;;;;;;;12.24;100.00;100640.75;5016808;28;21072;-44
2022/11/03 06:56:43;;;;;;;14.43;2.75;;;;;;;12.25;100.00;100634.34;5030133;28;20410;-44
2022/11/03 06:59:10;;;;;;;11.10;2.30;;;;;;;12.29;100.00;100639.13;5030422;28;20041;-44
2022/11/03 07:01:35;;;;;;;15.13;3.07;;;;;;;12.34;100.00;100632.31;5015927;28;20084;-45
2022/11/03 07:04:21;;;;;;;15.52;3.13;;;;;;;12.37;100.00;100630.06;5007155;28;20029;-44
2022/11/03 07:06:47;;;;;;;17.77;2.97;;;;;;;12.39;100.00;100630.69;5028340;28;20030;-44
2022/11/03 07:09:24;;;;;;;15.82;2.50;;;;;;;12.40;100.00;100640.47;5030198;28;20032;-45
2022/11/03 07:11:54;;;;;;;12.15;2.72;;;;;;;12.43;100.00;100629.28;5030016;28;20051;-44
2022/11/03 07:14:22;;;;;;;9.45;2.42;;;;;;;12.42;100.00;100627.59;5024162;28;20429;-45
2022/11/03 07:16:51;;;;;;;15.82;2.72;;;;;;;12.45;100.00;100632.63;5011613;28;20029;-44
2022/11/03 07:19:21;;;;;;;17.15;3.47;;;;;;;12.51;100.00;100633.69;5030180;28;20056;-44
2022/11/03 07:22:15;;;;;;;10.95;2.25;;;;;;;12.55;100.00;100617.91;5020092;28;20480;-44
2022/11/03 07:24:44;;;;;;;14.27;2.60;;;;;;;12.52;100.00;100638.88;5028252;28;20076;-45
2022/11/03 07:27:18;;;;;;;17.02;2.58;;;;;;;12.55;100.00;100639.50;5030018;28;20025;-45
2022/11/03 07:29:44;;;;;;;17.88;2.88;;;;;;;12.57;100.00;100632.88;5033595;28;20032;-45
2022/11/03 07:32:37;;;;;;;9.55;2.25;;;;;;;12.57;100.00;100621.25;5032807;28;20401;-44
2022/11/03 07:35:24;;;;;;;25.33;2.85;;;;;;;12.61;100.00;100627.88;5033308;28;20561;-45
2022/11/03 07:37:51;;;;;;;12.13;2.27;;;;;;;12.59;100.00;100624.59;5034168;28;20100;-44
2022/11/03 07:40:25;;;;;;;16.35;2.67;;;;;;;12.61;100.00;100634.16;5032911;28;20591;-45
2022/11/03 07:42:51;;;;;;;15.05;2.28;;;;;;;12.65;100.00;100618.38;5033141;28;20038;-45
2022/11/03 07:45:32;;;;;;;13.82;2.90;;;;;;;12.65;100.00;100626.47;5032115;28;20455;-45
2022/11/03 07:48:00;;;;;;;8.38;2.72;;;;;;;12.70;100.00;100611.31;5015461;28;20037;-45
2022/11/03 07:50:25;;;;;;;11.95;2.67;;;;;;;12.76;100.00;100609.69;5032720;28;20026;-44
2022/11/03 07:52:51;;;;;;;17.35;3.05;;;;;;;12.83;99.64;100599.75;5030174;28;20072;-44
2022/11/03 07:55:16;;;;;;;17.13;2.50;;;;;;;12.85;99.62;100603.09;5035518;28;20105;-46
2022/11/03 07:57:42;;;;;;;9.40;2.00;;;;;;;12.90;99.24;100595.22;5033496;28;20171;-44
2022/11/03 08:00:19;;;;;;;14.18;2.40;;;;;;;12.88;99.09;100591.03;5034593;28;20034;-37
2022/11/03 08:02:52;;;;;;;10.98;2.50;;;;;;;12.87;98.94;100587.47;5019979;28;20037;-38
2022/11/03 08:05:19;;;;;;;15.90;3.00;;;;;;;12.93;99.18;100575.88;5033914;28;20056;-37
2022/11/03 08:07:44;;;;;;;10.80;2.63;;;;;;;12.88;98.91;100564.84;5035030;28;20022;-37
2022/11/03 08:10:10;;;;;;;14.68;2.33;;;;;;;12.81;99.04;100564.00;5035060;28;20040;-38
2022/11/03 08:12:35;;;;;;;23.23;3.10;;;;;;;12.68;99.77;100550.47;5035389;28;20042;-38
2022/11/03 08:15:00;;;;;;;16.58;3.00;;;;;;;12.62;100.00;100545.88;5035054;28;20061;-38
2022/11/03 08:17:26;;;;;;;19.88;4.07;;;;;;;12.56;100.00;100543.97;5034765;28;20156;-37
2022/11/03 08:19:51;;;;;;;15.10;2.70;;;;;;;12.58;100.00;100548.13;5034090;28;20446;-37
2022/11/03 08:22:17;;;;;;;17.55;3.05;;;;;;;12.50;100.00;100551.00;5035470;28;20048;-37
2022/11/03 08:24:42;;;;;;;22.40;3.88;;;;;;;12.46;100.00;100529.00;5033242;28;20044;-38
2022/11/03 08:27:07;;;;;;;17.33;3.05;;;;;;;12.47;100.00;100525.25;5031400;28;20726;-38
2022/11/03 08:29:33;;;;;;;14.55;3.03;;;;;;;12.54;100.00;100525.28;5020608;28;20017;-37
2022/11/03 08:31:58;;;;;;;14.20;2.60;;;;;;;12.51;100.00;100529.22;5033527;28;20082;-37
2022/11/03 08:34:23;;;;;;;21.95;3.50;;;;;;;12.50;100.00;100519.44;5033413;28;20076;-37
2022/11/03 08:36:49;;;;;;;15.55;2.92;;;;;;;12.56;100.00;100522.38;5033734;28;20044;-36
2022/11/03 08:39:14;;;;;;;23.42;4.13;;;;;;;12.64;100.00;100514.13;5032354;28;20037;-38
2022/11/03 08:41:40;;;;;;;15.75;3.22;;;;;;;12.63;100.00;100504.34;5035427;28;20479;-38
2022/11/03 08:44:06;;;;;;;22.65;3.53;;;;;;;12.70;100.00;100502.50;5036740;28;20112;-38
2022/11/03 08:46:31;;;;;;;21.15;3.72;;;;;;;12.81;100.00;100499.19;5036144;28;20390;-38
2022/11/03 08:48:57;;;;;;;16.17;2.90;;;;;;;12.74;100.00;100491.09;5036199;28;20029;-37
2022/11/03 08:51:22;;;;;;;12.82;3.28;;;;;;;12.76;100.00;100496.25;5036080;28;20030;-37
2022/11/03 08:53:52;;;;;;;30.00;5.20;;;;;;;12.69;100.00;100487.31;5034347;28;20068;-37
2022/11/03 08:56:19;;;;;;;15.88;3.55;;;;;;;12.62;100.00;100494.59;5033994;28;20057;-39
2022/11/03 08:58:45;;;;;;;24.73;3.67;;;;;;;12.61;100.00;100482.09;5035526;28;20025;-37
2022/11/03 09:01:10;;;;;;;15.88;2.58;;;;;;;12.66;100.00;100474.22;5038340;28;20018;-37
2022/11/03 09:03:35;;;;;;;21.83;3.20;;;;;;;12.83;100.00;100480.91;5037614;28;20514;-37
2022/11/03 09:06:01;;;;;;;24.33;5.03;;;;;;;12.85;100.00;100478.84;5035531;28;20364;-38
2022/11/03 09:08:26;;;;;;;23.00;3.30;;;;;;;12.92;100.00;100478.84;5034440;28;20403;-40
2022/11/03 09:10:53;;;;;;;12.32;2.53;;;;;;;12.93;100.00;100469.72;5031977;28;20041;-37
2022/11/03 09:13:18;;;;;;;17.95;3.40;;;;;;;12.87;100.00;100471.34;5032689;28;20510;-38
2022/11/03 09:15:43;;;;;;;14.20;3.10;;;;;;;12.88;100.00;100461.41;5032827;28;20095;-37
2022/11/03 09:18:09;;;;;;;14.35;2.83;;;;;;;12.98;100.00;100455.56;5033605;28;20463;-37
2022/11/03 09:20:34;;;;;;;22.30;4.03;;;;;;;12.90;100.00;100462.84;5033023;28;20108;-37
2022/11/03 09:23:00;;;;;;;24.08;3.88;;;;;;;12.89;100.00;100455.78;5033418;28;20379;-39
2022/11/03 09:25:27;;;;;;;14.88;3.58;;;;;;;12.83;100.00;100437.69;5032429;28;20025;-37
2022/11/03 09:27:55;;;;;;;19.27;2.80;;;;;;;12.91;100.00;100442.91;5031486;28;20498;-36
2022/11/03 09:30:21;;;;;;;19.35;2.55;;;;;;;12.83;100.00;100432.31;5032953;28;20254;-37
2022/11/03 09:32:46;;;;;;;12.85;3.20;;;;;;;12.83;100.00;100429.59;5035640;28;20029;-37
2022/11/03 09:35:13;;;;;;;17.88;2.85;;;;;;;12.87;100.00;100433.53;5036619;28;20026;-37
2022/11/03 09:37:39;;;;;;;19.50;3.53;;;;;;;12.92;100.00;100424.81;5033913;28;20175;-37
2022/11/03 09:40:08;;;;;;;18.67;3.40;;;;;;;12.96;100.00;100405.28;5031838;28;20037;-37
2022/11/03 09:42:34;;;;;;;15.88;2.75;;;;;;;12.97;99.92;100419.63;5033801;28;20067;-37
2022/11/03 09:45:00;;;;;;;17.48;3.35;;;;;;;13.03;99.42;100405.28;5032630;28;20021;-37
2022/11/03 09:47:34;;;;;;;19.92;3.45;;;;;;;13.08;99.32;100401.97;5031522;28;20100;-37
2022/11/03 09:49:59;;;;;;;15.35;2.88;;;;;;;13.06;99.28;100401.31;5032550;28;20062;-38
2022/11/03 09:52:25;;;;;;;21.23;3.00;;;;;;;13.06;98.67;100399.47;5030961;28;20055;-38
2022/11/03 09:54:53;;;;;;;20.42;3.00;;;;;;;13.04;98.83;100389.91;5032608;28;20037;-37
2022/11/03 09:57:18;;;;;;;19.10;3.60;;;;;;;13.02;98.74;100389.28;5014352;28;20087;-37
2022/11/03 09:59:47;;;;;;;15.15;3.03;;;;;;;13.03;98.86;100388.25;5032359;28;20390;-37
2022/11/03 10:02:18;;;;;;;17.80;3.38;;;;;;;13.05;98.88;100378.88;5030741;28;20550;-38
2022/11/03 10:04:44;;;;;;;20.38;2.78;;;;;;;13.12;98.17;100370.78;5031805;28;20112;-37
2022/11/03 10:07:09;;;;;;;13.98;3.10;;;;;;;13.20;97.58;100362.47;5031496;28;20116;-37
2022/11/03 10:09:44;;;;;;;18.63;3.08;;;;;;;13.19;96.88;100347.28;5032089;28;20033;-37
2022/11/03 10:12:09;;;;;;;13.07;2.92;;;;;;;13.24;96.69;100344.75;5030154;28;20030;-37
2022/11/03 10:14:35;;;;;;;19.55;3.55;;;;;;;13.30;96.54;100346.69;5013895;28;20052;-38
2022/11/03 10:17:00;;;;;;;20.73;3.08;;;;;;;13.36;95.23;100337.72;5031637;28;20021;-38
2022/11/03 10:19:25;;;;;;;15.95;3.00;;;;;;;13.34;95.49;100337.09;5031185;28;20029;-37
2022/11/03 10:21:51;;;;;;;18.67;3.50;;;;;;;13.35;94.85;100333.34;5030531;28;20053;-37
2022/11/03 10:24:16;;;;;;;16.05;3.30;;;;;;;13.39;93.87;100331.88;5031373;28;20056;-37
2022/11/03 10:26:53;;;;;;;18.17;3.10;;;;;;;13.51;93.63;100320.41;5031710;28;20431;-38
2022/11/03 10:29:24;;;;;;;17.60;2.58;;;;;;;13.48;92.50;100326.22;5030253;28;20707;-36
2022/11/03 10:31:55;;;;;;;13.15;2.35;;;;;;;13.45;93.08;100327.47;5030949;28;20024;-37
2022/11/03 10:34:34;;;;;;;18.80;2.95;;;;;;;13.38;92.56;100330.22;5031803;28;20068;-38
2022/11/03 10:37:10;;;;;;;15.93;2.72;;;;;;;13.43;92.71;100329.59;5031738;28;20120;-37
2022/11/03 10:39:36;;;;;;;15.00;2.85;;;;;;;13.38;92.09;100319.41;5031108;28;20096;-38
2022/11/03 10:42:02;;;;;;;13.30;2.70;;;;;;;13.47;92.40;100332.69;5030864;28;20112;-39
2022/11/03 10:44:28;;;;;;;15.15;2.17;;;;;;;13.53;91.73;100313.75;5031830;28;20414;-37
2022/11/03 10:47:01;;;;;;;12.55;2.83;;;;;;;13.70;91.51;100303.25;5030306;28;20025;-38
2022/11/03 10:49:29;;;;;;;15.82;2.92;;;;;;;13.73;91.09;100297.41;5018474;28;20499;-37
2022/11/03 10:52:02;;;;;;;13.57;2.58;;;;;;;13.72;90.03;100284.94;5024839;28;20017;-37
2022/11/03 10:54:28;;;;;;;16.73;2.22;;;;;;;13.71;89.86;100285.97;5013327;28;20037;-37
2022/11/03 10:56:53;;;;;;;13.38;2.50;;;;;;;13.74;89.10;100276.59;5031917;28;20032;-37
2022/11/03 10:59:30;;;;;;;12.95;3.00;;;;;;;13.78;88.74;100286.78;5030943;28;20029;-37
2022/11/03 11:01:57;;;;;;;9.40;2.33;;;;;;;13.93;87.94;100291.91;5024008;28;20121;-37
2022/11/03 11:04:23;;;;;;;17.00;2.75;;;;;;;13.98;87.08;100299.34;5032120;28;20370;-37
2022/11/03 11:06:49;;;;;;;15.65;2.65;;;;;;;14.16;87.01;100285.91;5033052;28;20499;-38
2022/11/03 11:09:25;;;;;;;17.23;3.08;;;;;;;14.46;84.94;100269.03;5027934;28;20062;-37
2022/11/03 11:12:20;;;;;;;19.17;3.28;;;;;;;14.70;84.13;100268.22;5028667;28;20033;-37
2022/11/03 11:14:54;;;;;;;13.02;3.00;;;;;;;14.95;82.98;100270.03;5014290;28;20054;-37
2022/11/03 11:17:46;;;;;;;9.48;2.42;;;;;;;14.90;81.37;100270.75;5012362;28;20549;-38
2022/11/03 11:20:20;;;;;;;9.25;2.10;;;;;;;14.80;81.72;100248.75;5015662;28;20125;-37
2022/11/03 11:22:48;;;;;;;12.48;2.85;;;;;;;14.74;81.42;100255.03;5032103;28;20041;-38
2022/11/03 11:25:14;;;;;;;19.23;2.83;;;;;;;14.57;82.57;100243.97;5030693;28;20060;-38
2022/11/03 11:27:55;;;;;;;22.20;3.08;;;;;;;14.46;83.79;100241.97;5026183;28;20041;-37
2022/11/03 11:30:21;;;;;;;14.27;2.83;;;;;;;14.38;83.88;100237.66;5015645;28;20056;-37
2022/11/03 11:32:55;;;;;;;12.45;2.72;;;;;;;14.52;83.78;100234.81;5032990;28;20634;-37
2022/11/03 11:35:25;;;;;;;10.88;2.13;;;;;;;14.60;83.70;100213.72;5033402;28;20061;-38
2022/11/03 11:37:52;;;;;;;16.50;3.53;;;;;;;14.66;82.70;100212.00;5035511;28;20049;-38
2022/11/03 11:40:23;;;;;;;12.97;3.20;;;;;;;14.74;82.85;100209.00;5032664;28;20129;-38